createdAt,value
2018-08-03T00:02:12.915Z,29.40
2018-08-03T00:07:10.316Z,29.40
2018-08-03T00:09:39.265Z,29.40
2018-08-03T00:12:08.199Z,29.40
2018-08-03T00:14:37.147Z,29.30
2018-08-03T00:17:06.092Z,29.30
2018-08-03T00:19:35.046Z,29.30
2018-08-03T00:22:03.982Z,29.30
2018-08-03T00:24:32.905Z,29.30
2018-08-03T00:27:01.856Z,29.30
2018-08-03T00:29:30.784Z,29.20
2018-08-03T00:31:59.688Z,29.20
2018-08-03T00:34:28.612Z,29.20
2018-08-03T00:36:57.542Z,29.10
2018-08-03T00:39:26.492Z,29.10
2018-08-03T00:41:55.465Z,29.00
2018-08-03T00:44:24.458Z,29.00
2018-08-03T00:46:53.376Z,29.00
2018-08-03T00:49:22.296Z,29.00
2018-08-03T00:51:51.196Z,29.00
2018-08-03T00:54:20.157Z,29.00
2018-08-03T00:56:49.076Z,29.00
2018-08-03T00:59:17.997Z,29.00
2018-08-03T01:01:46.936Z,28.90
2018-08-03T01:04:15.872Z,28.90
2018-08-03T01:06:44.780Z,28.80
2018-08-03T01:09:14.240Z,28.80
2018-08-03T01:11:43.145Z,28.80
2018-08-03T01:14:12.069Z,28.80
2018-08-03T01:16:42.608Z,28.70
2018-08-03T01:19:13.387Z,28.70
2018-08-03T01:21:43.472Z,28.70
2018-08-03T01:24:12.412Z,28.70
2018-08-03T01:26:41.388Z,28.70
2018-08-03T01:29:10.325Z,28.60
2018-08-03T01:31:39.238Z,28.60
2018-08-03T01:34:08.180Z,28.60
2018-08-03T01:36:37.097Z,28.60
2018-08-03T01:39:08.137Z,28.60
2018-08-03T01:41:37.070Z,28.60
2018-08-03T01:44:06.081Z,28.60
2018-08-03T01:46:35.000Z,28.50
2018-08-03T01:49:04.132Z,28.50
2018-08-03T01:51:33.048Z,28.50
2018-08-03T01:54:01.975Z,28.50
2018-08-03T01:56:30.868Z,28.40
2018-08-03T01:58:59.803Z,28.40
2018-08-03T02:01:28.722Z,28.40
2018-08-03T02:03:57.665Z,28.40
2018-08-03T02:06:28.544Z,28.40
2018-08-03T02:08:57.531Z,28.30
2018-08-03T02:11:26.484Z,28.30
2018-08-03T02:13:55.487Z,28.30
2018-08-03T02:16:24.417Z,28.30
2018-08-03T02:18:53.353Z,28.20
2018-08-03T02:21:22.263Z,28.20
2018-08-03T02:23:51.199Z,28.20
2018-08-03T02:26:20.145Z,28.20
2018-08-03T02:28:49.096Z,28.10
2018-08-03T02:31:18.019Z,28.10
2018-08-03T02:33:47.005Z,28.10
2018-08-03T02:36:15.909Z,28.10
2018-08-03T02:38:44.852Z,28.00
2018-08-03T02:41:13.749Z,28.00
2018-08-03T02:43:42.707Z,28.00
2018-08-03T02:46:11.612Z,27.90
2018-08-03T02:48:40.545Z,27.90
2018-08-03T02:51:09.452Z,27.90
2018-08-03T02:53:38.408Z,27.90
2018-08-03T02:56:07.388Z,27.90
2018-08-03T02:58:36.372Z,27.80
2018-08-03T03:01:05.301Z,27.80
2018-08-03T03:03:34.282Z,27.80
2018-08-03T03:06:03.180Z,27.80
2018-08-03T03:08:32.117Z,27.80
2018-08-03T03:11:01.023Z,27.80
2018-08-03T03:13:29.940Z,27.80
2018-08-03T03:15:58.900Z,27.70
2018-08-03T03:18:27.860Z,27.70
2018-08-03T03:20:56.807Z,27.70
2018-08-03T03:23:25.798Z,27.70
2018-08-03T03:25:54.737Z,27.70
2018-08-03T03:28:23.689Z,27.60
2018-08-03T03:30:52.667Z,27.60
2018-08-03T03:33:21.650Z,27.60
2018-08-03T03:35:50.541Z,27.60
2018-08-03T03:38:19.485Z,27.50
2018-08-03T03:40:48.389Z,27.50
2018-08-03T03:43:17.347Z,27.50
2018-08-03T03:45:46.241Z,27.50
2018-08-03T03:48:15.201Z,27.40
2018-08-03T03:50:44.137Z,27.40
2018-08-03T03:53:13.036Z,27.40
2018-08-03T03:55:41.984Z,27.30
2018-08-03T03:58:10.898Z,27.30
2018-08-03T04:00:39.820Z,27.30
2018-08-03T04:03:08.725Z,27.30
2018-08-03T04:05:37.657Z,27.20
2018-08-03T04:08:06.548Z,27.20
2018-08-03T04:10:35.500Z,27.20
2018-08-03T04:13:04.452Z,27.20
2018-08-03T04:15:33.397Z,27.20
2018-08-03T04:18:02.320Z,27.10
2018-08-03T04:20:31.284Z,27.10
2018-08-03T04:23:00.197Z,27.10
2018-08-03T04:25:29.166Z,27.10
2018-08-03T04:27:58.077Z,27.00
2018-08-03T04:30:27.085Z,27.00
2018-08-03T04:32:56.046Z,27.00
2018-08-03T04:35:25.060Z,27.00
2018-08-03T04:37:54.013Z,27.00
2018-08-03T04:40:23.004Z,27.10
2018-08-03T04:42:51.908Z,27.00
2018-08-03T04:45:20.850Z,27.10
2018-08-03T04:47:49.773Z,27.10
2018-08-03T04:50:18.726Z,27.00
2018-08-03T04:52:47.653Z,27.10
2018-08-03T04:55:16.641Z,27.10
2018-08-03T04:57:45.548Z,27.10
2018-08-03T05:00:14.498Z,27.00
2018-08-03T05:02:43.392Z,27.10
2018-08-03T05:05:12.496Z,27.00
2018-08-03T05:07:41.416Z,27.00
2018-08-03T05:10:10.372Z,27.00
2018-08-03T05:12:39.284Z,27.00
2018-08-03T05:15:08.765Z,27.00
2018-08-03T05:17:37.932Z,27.00
2018-08-03T05:20:07.477Z,27.00
2018-08-03T05:22:36.428Z,27.00
2018-08-03T05:25:06.849Z,27.00
2018-08-03T05:27:35.790Z,27.00
2018-08-03T05:30:06.691Z,27.00
2018-08-03T05:32:35.633Z,27.00
2018-08-03T05:35:05.592Z,27.10
2018-08-03T05:37:34.521Z,27.10
2018-08-03T05:40:04.216Z,27.10
2018-08-03T05:42:33.143Z,27.10
2018-08-03T05:45:02.637Z,27.20
2018-08-03T05:47:31.539Z,27.20
2018-08-03T05:50:00.483Z,27.20
2018-08-03T05:52:29.403Z,27.20
2018-08-03T05:54:58.363Z,27.20
2018-08-03T05:57:27.348Z,27.20
2018-08-03T05:59:56.821Z,27.30
2018-08-03T06:02:26.622Z,27.30
2018-08-03T06:04:55.613Z,27.30
2018-08-03T06:07:24.556Z,27.30
2018-08-03T06:09:53.608Z,27.30
2018-08-03T06:12:22.576Z,27.30
2018-08-03T06:14:51.601Z,27.30
2018-08-03T06:17:20.461Z,27.30
2018-08-03T06:19:49.414Z,27.30
2018-08-03T06:22:18.350Z,27.30
2018-08-03T06:24:47.337Z,27.40
2018-08-03T06:27:16.277Z,27.40
2018-08-03T06:29:45.255Z,27.40
2018-08-03T06:32:14.188Z,27.40
2018-08-03T06:34:43.180Z,27.40
2018-08-03T06:37:12.090Z,27.40
2018-08-03T06:39:41.032Z,27.40
2018-08-03T06:42:09.985Z,27.40
2018-08-03T06:44:38.900Z,27.50
2018-08-03T06:47:07.898Z,27.50
2018-08-03T06:49:36.917Z,27.50
2018-08-03T06:52:05.865Z,27.60
2018-08-03T06:54:34.844Z,27.60
2018-08-03T06:57:03.834Z,27.50
2018-08-03T06:59:32.774Z,27.60
2018-08-03T07:02:01.751Z,27.60
2018-08-03T07:04:30.792Z,27.60
2018-08-03T07:06:59.717Z,27.70
2018-08-03T07:09:28.689Z,27.70
2018-08-03T07:11:57.678Z,27.70
2018-08-03T07:14:26.623Z,27.70
2018-08-03T07:16:55.773Z,27.80
2018-08-03T07:19:24.680Z,27.80
2018-08-03T07:21:53.650Z,27.80
2018-08-03T07:24:22.560Z,27.80
2018-08-03T07:26:51.555Z,27.90
2018-08-03T07:29:20.522Z,27.80
2018-08-03T07:31:49.467Z,27.90
2018-08-03T07:34:18.444Z,27.90
2018-08-03T07:36:47.462Z,27.90
2018-08-03T07:39:16.405Z,27.90
2018-08-03T07:41:45.337Z,27.90
2018-08-03T07:44:14.286Z,27.90
2018-08-03T07:46:43.224Z,28.00
2018-08-03T07:49:12.122Z,28.00
2018-08-03T07:51:41.070Z,28.00
2018-08-03T07:54:09.988Z,28.00
2018-08-03T07:56:38.967Z,28.00
2018-08-03T07:59:07.857Z,28.10
2018-08-03T08:01:36.845Z,28.10
2018-08-03T08:04:05.825Z,28.10
2018-08-03T08:06:34.822Z,28.10
2018-08-03T08:09:04.620Z,28.20
2018-08-03T08:11:33.552Z,28.20
2018-08-03T08:14:02.469Z,28.20
2018-08-03T08:16:31.482Z,28.20
2018-08-03T08:19:00.398Z,28.20
2018-08-03T08:21:29.434Z,28.30
2018-08-03T08:23:58.400Z,28.20
2018-08-03T08:26:27.398Z,28.20
2018-08-03T08:28:56.348Z,28.20
2018-08-03T08:31:25.358Z,28.20
2018-08-03T08:33:54.671Z,28.10
2018-08-03T08:36:23.590Z,28.10
2018-08-03T08:38:52.546Z,28.10
2018-08-03T08:43:50.541Z,28.00
2018-08-03T08:46:19.386Z,27.90
2018-08-03T08:48:48.337Z,27.90
2018-08-03T08:51:17.238Z,27.90
2018-08-03T08:53:46.172Z,27.90
2018-08-03T08:56:15.077Z,27.90
2018-08-03T08:58:44.009Z,27.90
2018-08-03T09:01:12.914Z,27.90
2018-08-03T09:03:41.868Z,27.90
2018-08-03T09:08:39.414Z,27.90
2018-08-03T09:11:09.109Z,27.90
2018-08-03T09:13:38.058Z,27.90
2018-08-03T09:18:35.600Z,27.90
2018-08-03T09:21:04.502Z,27.90
2018-08-03T09:23:33.484Z,27.90
2018-08-03T09:26:02.401Z,27.90
2018-08-03T09:28:31.397Z,28.00
2018-08-03T09:31:00.312Z,28.00
2018-08-03T09:33:29.268Z,28.00
2018-08-03T09:35:58.535Z,28.00
2018-08-03T09:38:27.499Z,28.00
2018-08-03T09:40:56.501Z,28.10
2018-08-03T09:43:25.519Z,28.10
2018-08-03T09:45:54.431Z,28.10
2018-08-03T09:48:23.372Z,28.20
2018-08-03T09:50:52.280Z,28.20
2018-08-03T09:53:21.210Z,28.30
2018-08-03T09:55:50.166Z,28.40
2018-08-03T09:58:19.325Z,28.40
2018-08-03T10:00:53.826Z,28.50
2018-08-03T10:03:22.769Z,28.60
2018-08-03T10:05:51.748Z,28.70
2018-08-03T10:08:20.970Z,28.80
2018-08-03T10:10:50.043Z,28.90
2018-08-03T10:13:18.994Z,28.90
2018-08-03T10:15:47.902Z,29.10
2018-08-03T10:18:16.829Z,29.10
2018-08-03T10:20:45.743Z,29.20
2018-08-03T10:23:14.694Z,29.30
2018-08-03T10:25:43.626Z,29.40
2018-08-03T10:28:12.578Z,29.50
2018-08-03T10:30:41.574Z,29.60
2018-08-03T10:33:10.517Z,29.70
2018-08-03T10:35:39.449Z,29.70
2018-08-03T10:38:08.364Z,29.80
2018-08-03T10:40:37.335Z,29.90
2018-08-03T10:43:06.360Z,30.00
2018-08-03T10:45:35.324Z,30.00
2018-08-03T10:48:04.237Z,30.10
2018-08-03T10:50:33.201Z,30.20
2018-08-03T10:53:02.109Z,30.30
2018-08-03T10:55:31.045Z,30.40
2018-08-03T10:58:00.066Z,30.50
2018-08-03T11:00:30.552Z,30.50
2018-08-03T11:02:59.878Z,30.60
2018-08-03T11:05:29.266Z,30.70
2018-08-03T11:07:58.334Z,30.80
2018-08-03T11:10:27.317Z,30.80
2018-08-03T11:12:56.343Z,30.90
2018-08-03T11:15:25.260Z,31.00
2018-08-03T11:17:54.165Z,31.10
2018-08-03T11:20:23.097Z,31.20
2018-08-03T11:22:51.992Z,31.20
2018-08-03T11:25:20.936Z,31.30
2018-08-03T11:27:49.866Z,31.40
2018-08-03T11:30:18.816Z,31.50
2018-08-03T11:32:47.725Z,31.60
2018-08-03T11:35:16.770Z,31.60
2018-08-03T11:37:45.677Z,31.70
2018-08-03T11:40:14.640Z,31.80
2018-08-03T11:42:43.585Z,31.80
2018-08-03T11:45:12.556Z,31.90
2018-08-03T11:47:41.495Z,32.00
2018-08-03T11:50:11.365Z,32.10
2018-08-03T11:52:40.536Z,32.20
2018-08-03T11:55:09.489Z,32.20
2018-08-03T11:57:38.433Z,32.30
2018-08-03T12:00:07.461Z,32.40
2018-08-03T12:02:36.380Z,32.40
2018-08-03T12:05:05.877Z,32.50
2018-08-03T12:07:34.799Z,32.60
2018-08-03T12:10:04.514Z,32.70
2018-08-03T12:12:33.462Z,32.70
2018-08-03T12:15:02.901Z,32.80
2018-08-03T12:17:31.821Z,32.90
2018-08-03T12:20:00.818Z,32.90
2018-08-03T12:22:29.738Z,32.80
2018-08-03T12:24:58.698Z,32.80
2018-08-03T12:27:27.697Z,32.70
2018-08-03T12:29:56.712Z,32.70
2018-08-03T12:32:25.649Z,32.70
2018-08-03T12:34:54.656Z,32.70
2018-08-03T12:37:23.688Z,32.80
2018-08-03T12:39:52.674Z,32.80
2018-08-03T12:44:50.156Z,32.90
2018-08-03T12:47:19.093Z,33.00
2018-08-03T12:49:48.087Z,33.20
2018-08-03T12:52:16.992Z,33.30
2018-08-03T12:54:45.941Z,33.40
2018-08-03T12:57:14.883Z,33.60
2018-08-03T12:59:44.014Z,33.70
2018-08-03T13:02:12.838Z,33.80
2018-08-03T13:04:41.786Z,33.90
2018-08-03T13:07:10.846Z,34.00
2018-08-03T13:09:39.736Z,34.10
2018-08-03T13:12:08.703Z,34.20
2018-08-03T13:14:37.658Z,34.30
2018-08-03T13:17:06.631Z,34.40
2018-08-03T13:19:35.550Z,34.40
2018-08-03T13:22:04.506Z,34.50
2018-08-03T13:24:33.442Z,34.60
2018-08-03T13:27:02.421Z,34.70
2018-08-03T13:29:31.415Z,34.80
2018-08-03T13:32:00.363Z,34.90
2018-08-03T13:34:29.269Z,35.00
2018-08-03T13:36:58.294Z,35.10
2018-08-03T13:39:27.196Z,35.20
2018-08-03T13:41:56.797Z,35.30
2018-08-03T13:44:25.739Z,35.40
2018-08-03T13:46:54.693Z,35.40
2018-08-03T13:49:23.713Z,35.40
2018-08-03T13:51:52.695Z,35.30
2018-08-03T13:54:21.628Z,35.20
2018-08-03T13:56:50.609Z,35.10
2018-08-03T13:59:19.570Z,34.90
2018-08-03T14:01:59.511Z,34.80
2018-08-03T14:04:28.505Z,34.70
2018-08-03T14:06:57.934Z,34.60
2018-08-03T14:09:26.896Z,34.60
2018-08-03T14:11:55.945Z,34.60
2018-08-03T14:14:24.855Z,34.60
2018-08-03T14:16:53.811Z,34.70
2018-08-03T14:19:22.774Z,34.70
2018-08-03T14:21:51.727Z,34.70
2018-08-03T14:24:20.729Z,34.70
2018-08-03T14:26:49.699Z,34.80
2018-08-03T14:29:18.602Z,34.90
2018-08-03T14:31:47.671Z,35.00
2018-08-03T14:34:16.591Z,35.10
2018-08-03T14:36:49.658Z,35.20
2018-08-03T14:39:18.578Z,35.30
2018-08-03T14:41:47.514Z,35.50
2018-08-03T14:44:16.471Z,35.60
2018-08-03T14:46:46.863Z,35.70
2018-08-03T14:49:15.801Z,35.90
2018-08-03T14:51:44.766Z,36.00
2018-08-03T14:54:13.735Z,36.10
2018-08-03T14:59:11.185Z,36.30
2018-08-03T15:01:40.136Z,36.50
2018-08-03T15:04:09.042Z,36.50
2018-08-03T15:06:38.004Z,36.70
2018-08-03T15:09:09.733Z,36.70
2018-08-03T15:11:38.726Z,36.80
2018-08-03T15:14:07.657Z,36.80
2018-08-03T15:16:36.865Z,36.80
2018-08-03T15:19:05.821Z,36.80
2018-08-03T15:21:34.837Z,36.90
2018-08-03T15:24:03.741Z,36.90
2018-08-03T15:26:32.672Z,37.00
2018-08-03T15:29:01.604Z,37.10
2018-08-03T15:31:30.489Z,37.20
2018-08-03T15:33:59.469Z,37.20
2018-08-03T15:36:28.525Z,37.30
2018-08-03T15:38:58.578Z,37.40
2018-08-03T15:41:27.594Z,37.50
2018-08-03T15:46:25.108Z,37.70
2018-08-03T15:48:54.120Z,37.80
2018-08-03T15:51:23.095Z,37.80
2018-08-03T15:53:52.080Z,37.90
2018-08-03T15:56:21.024Z,38.00
2018-08-03T15:58:49.975Z,38.00
2018-08-03T16:01:18.951Z,38.10
2018-08-03T16:03:47.950Z,38.10
2018-08-03T16:06:16.884Z,38.20
2018-08-03T16:08:45.908Z,38.20
2018-08-03T16:11:14.821Z,38.30
2018-08-03T16:13:43.856Z,38.20
2018-08-03T16:16:12.778Z,38.30
2018-08-03T16:18:41.755Z,38.30
2018-08-03T16:21:10.695Z,38.30
2018-08-03T16:23:39.703Z,38.40
2018-08-03T16:26:08.629Z,38.40
2018-08-03T16:28:37.573Z,38.50
2018-08-03T16:31:06.549Z,38.50
2018-08-03T16:36:04.078Z,38.60
2018-08-03T16:38:33.050Z,38.70
2018-08-03T16:41:02.005Z,38.70
2018-08-03T16:43:30.944Z,38.80
2018-08-03T16:45:59.964Z,38.80
2018-08-03T16:48:30.408Z,38.80
2018-08-03T16:50:59.400Z,38.90
2018-08-03T16:53:28.617Z,38.90
2018-08-03T16:55:57.602Z,38.90
2018-08-03T16:58:26.626Z,38.90
2018-08-03T17:00:55.865Z,38.90
2018-08-03T17:03:24.831Z,39.00
2018-08-03T17:05:53.769Z,39.00
2018-08-03T17:08:22.751Z,38.90
2018-08-03T17:10:51.689Z,38.90
2018-08-03T17:13:20.660Z,38.90
2018-08-03T17:15:49.568Z,38.80
2018-08-03T17:18:20.171Z,38.80
2018-08-03T17:20:49.157Z,38.70
2018-08-03T17:23:18.112Z,38.60
2018-08-03T17:25:47.048Z,38.40
2018-08-03T17:28:16.041Z,38.40
2018-08-03T17:30:45.150Z,38.20
2018-08-03T17:33:14.156Z,38.00
2018-08-03T17:35:43.109Z,37.90
2018-08-03T17:38:12.161Z,37.70
2018-08-03T17:40:41.150Z,37.50
2018-08-03T17:43:10.101Z,37.40
2018-08-03T17:45:39.059Z,37.30
2018-08-03T17:48:08.289Z,37.10
2018-08-03T17:50:37.253Z,37.00
2018-08-03T17:53:06.237Z,36.90
2018-08-03T17:58:04.034Z,36.60
2018-08-03T18:00:32.983Z,36.50
2018-08-03T18:03:02.416Z,36.40
2018-08-03T18:05:31.366Z,36.30
2018-08-03T18:08:00.322Z,36.20
2018-08-03T18:10:29.260Z,36.00
2018-08-03T18:12:58.242Z,35.90
2018-08-03T18:15:27.241Z,35.80
2018-08-03T18:17:56.210Z,35.70
2018-08-03T18:20:25.205Z,35.60
2018-08-03T18:22:54.147Z,35.50
2018-08-03T18:25:23.121Z,35.30
2018-08-03T18:27:52.130Z,35.20
2018-08-03T18:30:21.108Z,35.10
2018-08-03T18:32:50.073Z,35.00
2018-08-03T18:35:19.068Z,34.90
2018-08-03T18:37:47.988Z,34.80
2018-08-03T18:40:16.982Z,34.70
2018-08-03T18:42:45.908Z,34.60
2018-08-03T18:45:15.009Z,34.60
2018-08-03T18:47:44.098Z,34.50
2018-08-03T18:50:13.103Z,34.40
2018-08-03T18:55:10.610Z,34.30
2018-08-03T18:57:39.607Z,34.20
2018-08-03T19:00:08.775Z,34.20
2018-08-03T19:02:37.718Z,34.10
2018-08-03T19:05:07.169Z,34.10
2018-08-03T19:07:36.349Z,34.00
2018-08-03T19:10:05.374Z,34.00
2018-08-03T19:12:34.324Z,33.90
2018-08-03T19:15:03.336Z,33.90
2018-08-03T19:17:32.286Z,33.90
2018-08-03T19:20:01.298Z,33.80
2018-08-03T19:22:30.267Z,33.80
2018-08-03T19:24:59.293Z,33.70
2018-08-03T19:27:28.801Z,33.60
2018-08-03T19:29:57.797Z,33.60
2018-08-03T19:32:26.746Z,33.60
2018-08-03T19:34:55.849Z,33.60
2018-08-03T19:37:24.812Z,33.50
2018-08-03T19:39:53.809Z,33.50
2018-08-03T19:42:22.757Z,33.50
2018-08-03T19:44:52.612Z,33.50
2018-08-03T19:47:21.545Z,33.40
2018-08-03T19:49:50.512Z,33.40
2018-08-03T19:52:19.449Z,33.40
2018-08-03T19:54:48.439Z,33.40
2018-08-03T19:57:17.401Z,33.30
2018-08-03T19:59:46.383Z,33.30
2018-08-03T20:02:15.306Z,33.20
2018-08-03T20:04:44.284Z,33.20
2018-08-03T20:07:13.211Z,33.20
2018-08-03T20:09:42.183Z,33.10
2018-08-03T20:12:11.109Z,33.10
2018-08-03T20:14:40.076Z,33.00
2018-08-03T20:17:08.996Z,33.00
2018-08-03T20:19:38.038Z,33.00
2018-08-03T20:22:12.809Z,33.00
2018-08-03T20:24:42.075Z,32.90
2018-08-03T20:27:10.997Z,32.90
2018-08-03T20:29:40.005Z,32.90
2018-08-03T20:32:12.865Z,32.80
2018-08-03T20:34:41.821Z,32.80
2018-08-03T20:37:10.810Z,32.80
2018-08-03T20:39:39.809Z,32.70
2018-08-03T20:42:08.773Z,32.70
2018-08-03T20:44:37.840Z,32.70
2018-08-03T20:47:06.801Z,32.60
2018-08-03T20:49:35.862Z,32.60
2018-08-03T20:52:04.885Z,32.60
2018-08-03T20:54:33.909Z,32.50
2018-08-03T20:57:02.815Z,32.50
2018-08-03T20:59:32.012Z,32.50
2018-08-03T21:02:00.946Z,32.50
2018-08-03T21:04:30.111Z,32.40
2018-08-03T21:06:59.090Z,32.40
2018-08-03T21:09:28.054Z,32.30
2018-08-03T21:11:57.050Z,32.30
2018-08-03T21:14:26.050Z,32.30
2018-08-03T21:16:58.801Z,32.20
2018-08-03T21:19:27.802Z,32.20
2018-08-03T21:21:56.774Z,32.20
2018-08-03T21:24:25.785Z,32.10
2018-08-03T21:26:54.761Z,32.10
2018-08-03T21:29:23.835Z,32.10
2018-08-03T21:31:52.832Z,32.10
2018-08-03T21:34:21.762Z,32.00
2018-08-03T21:36:50.802Z,32.00
2018-08-03T21:39:19.758Z,32.00
2018-08-03T21:41:48.724Z,31.90
2018-08-03T21:44:17.691Z,31.90
2018-08-03T21:46:46.669Z,31.80
2018-08-03T21:51:44.185Z,31.80
2018-08-03T21:54:13.113Z,31.70
2018-08-03T21:56:42.083Z,31.70
2018-08-03T21:59:10.997Z,31.70
2018-08-03T22:01:39.997Z,31.60
2018-08-03T22:04:08.973Z,31.60
2018-08-03T22:06:37.942Z,31.60
2018-08-03T22:09:08.759Z,31.50
2018-08-03T22:11:37.754Z,31.50
2018-08-03T22:14:07.068Z,31.40
2018-08-03T22:16:36.076Z,31.40
2018-08-03T22:19:05.104Z,31.30
2018-08-03T22:21:34.114Z,31.30
2018-08-03T22:24:03.070Z,31.20
2018-08-03T22:26:32.047Z,31.20
2018-08-03T22:29:00.984Z,31.20
2018-08-03T22:31:30.157Z,31.10
2018-08-03T22:33:59.090Z,31.10
2018-08-03T22:38:56.781Z,31.00
2018-08-03T22:41:25.770Z,31.00
2018-08-03T22:46:23.220Z,30.90
2018-08-03T22:48:52.208Z,30.90
2018-08-03T22:51:21.260Z,30.80
2018-08-03T22:53:50.224Z,30.80
2018-08-03T22:56:19.204Z,30.80
2018-08-03T22:58:48.168Z,30.70
2018-08-03T23:01:17.127Z,30.70
2018-08-03T23:03:46.057Z,30.70
2018-08-03T23:06:15.012Z,30.70
2018-08-03T23:08:43.940Z,30.60
2018-08-03T23:11:12.915Z,30.60
2018-08-03T23:13:41.855Z,30.60
2018-08-03T23:16:10.820Z,30.60
2018-08-03T23:18:39.744Z,30.60
2018-08-03T23:21:08.709Z,30.60
2018-08-03T23:23:37.691Z,30.60
2018-08-03T23:26:06.665Z,30.60
2018-08-03T23:28:35.664Z,30.60
2018-08-03T23:31:04.681Z,30.50
2018-08-03T23:33:33.629Z,30.50
2018-08-03T23:36:02.647Z,30.50
2018-08-03T23:38:31.598Z,30.50
2018-08-03T23:41:00.630Z,30.50
2018-08-03T23:43:29.568Z,30.50
2018-08-03T23:45:58.546Z,30.40
2018-08-03T23:48:27.473Z,30.40
2018-08-03T23:50:56.428Z,30.40
2018-08-03T23:53:25.343Z,30.40
2018-08-03T23:55:54.344Z,30.40
2018-08-03T23:58:23.327Z,30.40
